Time;durP1;ratioP1;P1;durP2;ratioP2;P2;SDS_P1;SDS_P2;PMS_P1;PMS_P2;Temp;Humidity;BMP_temperature;BMP_pressure;BME280_temperature;BME280_humidity;BME280_pressure;Samples;Min_cycle;Max_cycle;Signal;HPM_P1;HPM_P2
2022/01/05 00:00:28;;;;;;;2.90;0.80;;;;;;;7.08;65.48;99413.78;4919417;28;112519;-51
2022/01/05 00:02:53;;;;;;;3.20;0.87;;;;;;;7.08;65.21;99422.00;4922321;28;106958;-51
2022/01/05 00:05:18;;;;;;;4.03;1.37;;;;;;;7.07;65.32;99431.47;4911527;28;96867;-49
2022/01/05 00:07:44;;;;;;;3.70;0.90;;;;;;;7.08;65.44;99421.25;4926595;28;115505;-51
2022/01/05 00:10:10;;;;;;;1.27;0.80;;;;;;;7.07;65.41;99431.47;4922596;28;96981;-52
2022/01/05 00:12:35;;;;;;;5.53;1.60;;;;;;;7.07;65.11;99423.25;4923863;28;97235;-51
2022/01/05 00:15:01;;;;;;;4.33;1.33;;;;;;;7.09;65.11;99420.78;4924851;28;127500;-49
2022/01/05 00:17:27;;;;;;;1.50;0.80;;;;;;;7.07;65.21;99414.31;4922306;28;97566;-51
2022/01/05 00:19:52;;;;;;;5.63;1.07;;;;;;;7.05;65.27;99411.31;4925127;28;97393;-51
2022/01/05 00:22:18;;;;;;;2.53;1.27;;;;;;;7.04;65.32;99410.56;4924050;28;97125;-50
2022/01/05 00:24:43;;;;;;;4.13;1.13;;;;;;;7.05;65.39;99428.47;4923919;28;124351;-52
2022/01/05 00:27:09;;;;;;;4.23;0.90;;;;;;;7.06;65.28;99415.53;4924130;28;97279;-51
2022/01/05 00:29:34;;;;;;;3.40;1.17;;;;;;;7.08;65.44;99410.31;4923712;28;96962;-51
2022/01/05 00:31:59;;;;;;;12.50;1.47;;;;;;;7.07;65.49;99404.13;4924894;28;121279;-51
2022/01/05 00:34:25;;;;;;;3.20;1.23;;;;;;;7.07;65.43;99406.09;4923772;28;98860;-51
2022/01/05 00:36:50;;;;;;;6.73;1.10;;;;;;;7.06;65.21;99408.09;4924347;28;117659;-51
2022/01/05 00:39:15;;;;;;;2.10;1.10;;;;;;;7.06;65.64;99405.34;4918714;28;118967;-51
2022/01/05 00:41:40;;;;;;;7.80;1.23;;;;;;;7.07;65.40;99415.06;4919662;28;96734;-50
2022/01/05 00:44:06;;;;;;;7.57;0.90;;;;;;;7.08;65.16;99408.31;4921582;28;128124;-51
2022/01/05 00:46:31;;;;;;;1.87;0.83;;;;;;;7.06;65.20;99424.50;4922707;28;98516;-51
2022/01/05 00:48:57;;;;;;;2.47;1.10;;;;;;;7.06;65.55;99429.97;4923384;28;106881;-50
2022/01/05 00:51:22;;;;;;;2.93;1.00;;;;;;;7.05;65.43;99428.47;4927110;28;98363;-51
2022/01/05 00:53:47;;;;;;;2.00;0.90;;;;;;;7.06;65.19;99423.75;4921921;28;126606;-51
2022/01/05 00:56:13;;;;;;;3.10;1.10;;;;;;;7.05;65.34;99427.72;4928791;28;97267;-52
2022/01/05 00:58:38;;;;;;;3.63;1.20;;;;;;;7.05;65.59;99416.78;4923565;28;116835;-51
2022/01/05 01:01:03;;;;;;;4.47;1.37;;;;;;;7.04;65.36;99415.28;4921599;28;119369;-51
2022/01/05 01:03:29;;;;;;;2.87;1.10;;;;;;;7.04;65.36;99416.03;4924254;28;102687;-51
2022/01/05 01:05:55;;;;;;;4.87;1.40;;;;;;;7.04;65.62;99416.03;4923629;28;96824;-50
2022/01/05 01:08:21;;;;;;;2.20;1.27;;;;;;;7.05;65.55;99417.53;4925515;28;97077;-49
2022/01/05 01:10:47;;;;;;;2.90;1.40;;;;;;;7.06;65.54;99410.81;4921339;28;103977;-50
2022/01/05 01:13:16;;;;;;;3.03;1.00;;;;;;;7.03;65.24;99414.56;4923298;28;97720;-48
2022/01/05 01:15:50;;;;;;;2.87;0.70;;;;;;;7.02;65.48;99412.31;4911764;28;96887;-50
2022/01/05 01:18:15;;;;;;;4.90;1.20;;;;;;;7.04;65.40;99409.81;4919938;28;96913;-50
2022/01/05 01:20:40;;;;;;;1.50;0.77;;;;;;;7.02;65.22;99413.06;4925231;28;97508;-51
2022/01/05 01:23:06;;;;;;;10.17;1.27;;;;;;;7.02;65.49;99413.06;4922542;28;97181;-49
2022/01/05 01:25:32;;;;;;;3.07;1.10;;;;;;;7.02;65.29;99413.06;4923808;28;96792;-50
2022/01/05 01:27:58;;;;;;;4.43;1.47;;;;;;;7.01;65.48;99406.09;4924001;28;97199;-51
2022/01/05 01:30:23;;;;;;;10.53;1.43;;;;;;;7.01;65.40;99410.84;4921036;28;113007;-52
2022/01/05 01:32:48;;;;;;;8.30;1.00;;;;;;;7.00;65.23;99415.53;4922031;28;105480;-51
2022/01/05 01:35:14;;;;;;;2.97;1.40;;;;;;;7.01;65.31;99422.50;4926568;28;117113;-50
2022/01/05 01:37:39;;;;;;;3.27;0.83;;;;;;;7.00;65.23;99425.72;4923549;28;98516;-51
2022/01/05 01:40:06;;;;;;;4.47;1.53;;;;;;;6.98;65.30;99418.03;4925060;28;97414;-49
2022/01/05 01:42:32;;;;;;;2.40;1.00;;;;;;;6.95;65.15;99426.47;4922539;28;97390;-52
2022/01/05 01:44:57;;;;;;;2.97;1.30;;;;;;;6.92;65.35;99424.75;4924539;28;97886;-51
2022/01/05 01:47:23;;;;;;;4.07;1.20;;;;;;;6.90;65.22;99433.44;4924322;28;96920;-51
2022/01/05 01:49:48;;;;;;;2.93;1.10;;;;;;;6.87;65.22;99423.50;4914077;28;97349;-51
2022/01/05 01:52:14;;;;;;;5.33;1.20;;;;;;;6.81;65.36;99423.47;4924417;28;96984;-49
2022/01/05 01:54:39;;;;;;;4.23;1.20;;;;;;;6.79;65.33;99430.72;4919931;28;96867;-50
2022/01/05 01:57:06;;;;;;;5.10;1.10;;;;;;;6.77;65.25;99425.72;4923388;28;96993;-49
2022/01/05 01:59:32;;;;;;;6.13;1.07;;;;;;;6.75;65.49;99427.44;4902911;28;98577;-49
2022/01/05 02:01:57;;;;;;;10.40;1.00;;;;;;;6.72;65.50;99423.00;4915807;28;98741;-49
2022/01/05 02:04:22;;;;;;;4.23;1.23;;;;;;;6.70;65.40;99417.28;4919913;28;96768;-52
2022/01/05 02:06:48;;;;;;;5.70;1.00;;;;;;;6.71;65.30;99421.50;4920858;28;98529;-49
2022/01/05 02:09:14;;;;;;;5.30;1.03;;;;;;;6.70;65.24;99417.28;4922429;28;96823;-52
2022/01/05 02:11:40;;;;;;;1.83;1.00;;;;;;;6.69;65.27;99418.50;4921070;28;97341;-48
2022/01/05 02:14:06;;;;;;;4.03;0.97;;;;;;;6.67;65.51;99416.28;4919282;28;97355;-49
2022/01/05 02:16:34;;;;;;;2.20;0.77;;;;;;;6.67;65.41;99410.06;4922388;28;97138;-48
2022/01/05 02:19:00;;;;;;;6.00;1.00;;;;;;;6.66;65.48;99414.03;4923690;28;97030;-48
2022/01/05 02:21:30;;;;;;;2.90;0.90;;;;;;;6.66;65.32;99416.78;4924300;28;97345;-52
2022/01/05 02:23:55;;;;;;;2.40;0.70;;;;;;;6.64;65.53;99411.78;4922164;28;96811;-50
2022/01/05 02:26:20;;;;;;;3.90;1.00;;;;;;;6.65;65.35;99424.22;4916574;28;96947;-48
2022/01/05 02:28:46;;;;;;;4.70;1.00;;;;;;;6.66;65.07;99419.50;4925843;28;97673;-49
2022/01/05 02:31:11;;;;;;;4.07;1.00;;;;;;;6.63;65.38;99418.50;4921919;28;97008;-50
2022/01/05 02:33:39;;;;;;;4.17;1.03;;;;;;;6.60;65.22;99414.03;4925130;28;98607;-50
2022/01/05 02:36:05;;;;;;;2.83;0.80;;;;;;;6.57;65.40;99417.00;4922203;28;98108;-50
2022/01/05 02:38:31;;;;;;;1.23;1.07;;;;;;;6.55;65.00;99417.50;4921450;28;97484;-49
2022/01/05 02:40:56;;;;;;;7.27;0.90;;;;;;;6.54;65.29;99409.78;4924342;28;97451;-49
2022/01/05 02:43:22;;;;;;;2.50;0.93;;;;;;;6.54;65.51;99418.00;4922827;28;97261;-49
2022/01/05 02:45:48;;;;;;;5.17;0.80;;;;;;;6.55;65.32;99416.75;4921532;28;97586;-49
2022/01/05 02:48:13;;;;;;;3.57;0.90;;;;;;;6.54;64.99;99412.53;4920492;28;96934;-49
2022/01/05 02:50:39;;;;;;;3.47;1.10;;;;;;;6.52;65.53;99412.28;4920016;28;98243;-48
2022/01/05 02:53:04;;;;;;;3.23;0.90;;;;;;;6.51;65.44;99402.59;4918659;28;97330;-52
2022/01/05 02:55:29;;;;;;;4.33;1.23;;;;;;;6.51;65.10;99408.06;4923211;28;96906;-49
2022/01/05 02:57:55;;;;;;;3.00;0.93;;;;;;;6.49;65.09;99408.53;4920677;28;111475;-49
2022/01/05 03:00:20;;;;;;;5.00;1.97;;;;;;;6.49;65.62;99414.00;4915038;28;108899;-51
2022/01/05 03:02:45;;;;;;;3.20;1.20;;;;;;;6.51;65.56;99410.81;4919228;28;97482;-54
2022/01/05 03:05:11;;;;;;;2.37;0.80;;;;;;;6.48;65.48;99411.78;4921247;28;97102;-49
2022/01/05 03:07:39;;;;;;;3.93;1.20;;;;;;;6.47;64.97;99405.56;4920581;28;98407;-48
2022/01/05 03:10:10;;;;;;;4.87;1.27;;;;;;;6.46;65.20;99406.81;4919778;28;96976;-51
2022/01/05 03:12:38;;;;;;;3.80;1.10;;;;;;;6.43;65.15;99407.03;4924404;28;97088;-50
2022/01/05 03:15:05;;;;;;;4.83;1.87;;;;;;;6.40;65.02;99408.75;4919624;28;96857;-50
2022/01/05 03:17:31;;;;;;;3.00;1.20;;;;;;;6.36;65.56;99408.25;4924694;28;97301;-48
2022/01/05 03:19:56;;;;;;;1.73;1.00;;;;;;;6.34;65.18;99404.53;4921749;28;121576;-48
2022/01/05 03:22:22;;;;;;;1.47;0.90;;;;;;;6.32;65.00;99407.75;4922423;28;96914;-48
2022/01/05 03:24:47;;;;;;;6.80;1.10;;;;;;;6.30;65.04;99406.75;4920236;28;97699;-50
2022/01/05 03:27:13;;;;;;;5.57;1.27;;;;;;;6.27;65.55;99407.75;4918658;28;97390;-48
2022/01/05 03:29:38;;;;;;;5.67;1.23;;;;;;;6.24;65.26;99400.53;4923360;28;97255;-49
2022/01/05 03:32:04;;;;;;;3.57;0.90;;;;;;;6.22;65.00;99403.03;4923118;28;104247;-49
2022/01/05 03:34:31;;;;;;;3.27;1.23;;;;;;;6.20;64.94;99395.34;4919981;28;97305;-49
2022/01/05 03:36:56;;;;;;;5.30;1.20;;;;;;;6.16;65.45;99399.53;4924695;28;97064;-48
2022/01/05 03:39:22;;;;;;;3.43;1.10;;;;;;;6.13;65.33;99395.06;4921549;28;97253;-48
2022/01/05 03:41:48;;;;;;;5.17;1.23;;;;;;;6.14;65.22;99396.56;4925257;28;97347;-49
2022/01/05 03:44:13;;;;;;;1.50;0.70;;;;;;;6.11;65.12;99409.19;4926943;28;96881;-48
2022/01/05 03:46:38;;;;;;;5.83;1.30;;;;;;;6.08;65.45;99401.97;4924037;28;106339;-49
2022/01/05 03:49:04;;;;;;;1.53;0.80;;;;;;;6.04;65.39;99421.34;4927172;28;117674;-50
2022/01/05 03:51:29;;;;;;;5.57;1.03;;;;;;;6.02;65.46;99412.91;4922310;28;96970;-49
2022/01/05 03:53:55;;;;;;;2.20;0.70;;;;;;;6.03;65.03;99406.19;4926479;28;97044;-49
2022/01/05 03:56:20;;;;;;;5.70;1.00;;;;;;;6.00;65.03;99420.06;4925151;28;97622;-49
2022/01/05 03:58:46;;;;;;;3.63;0.83;;;;;;;6.00;65.59;99411.88;4923779;28;110214;-50
2022/01/05 04:01:11;;;;;;;6.27;0.60;;;;;;;5.97;65.16;99416.34;4926758;28;97285;-48
2022/01/05 04:03:36;;;;;;;1.97;0.87;;;;;;;5.97;65.41;99419.06;4922761;28;98825;-49
2022/01/05 04:06:02;;;;;;;2.23;0.80;;;;;;;5.96;65.02;99423.03;4926119;28;97507;-49
2022/01/05 04:08:28;;;;;;;4.80;1.27;;;;;;;5.94;65.29;99422.78;4926006;28;98981;-49
2022/01/05 04:10:53;;;;;;;4.10;0.80;;;;;;;5.93;65.00;99431.47;4922394;28;96951;-49
2022/01/05 04:13:19;;;;;;;3.97;0.80;;;;;;;5.88;65.26;99434.91;4927156;28;118019;-52
2022/01/05 04:15:44;;;;;;;2.77;0.70;;;;;;;5.84;65.39;99445.31;4921972;28;97515;-49
2022/01/05 04:18:10;;;;;;;2.20;0.90;;;;;;;5.85;65.25;99444.81;4926034;28;96715;-48
2022/01/05 04:20:35;;;;;;;4.40;0.90;;;;;;;5.82;65.24;99436.84;4925806;28;99677;-49
2022/01/05 04:23:01;;;;;;;2.10;0.57;;;;;;;5.82;65.45;99442.28;4915923;28;97260;-50
2022/01/05 04:25:26;;;;;;;3.27;0.70;;;;;;;5.80;65.14;99440.06;4924618;28;97277;-48
2022/01/05 04:27:51;;;;;;;4.03;0.80;;;;;;;5.78;65.24;99442.53;4921904;28;97449;-51
2022/01/05 04:30:17;;;;;;;3.37;1.00;;;;;;;5.77;65.22;99453.91;4922877;28;117716;-48
2022/01/05 04:32:42;;;;;;;4.70;0.97;;;;;;;5.75;65.25;99454.41;4923581;28;107318;-50
2022/01/05 04:35:11;;;;;;;3.40;1.00;;;;;;;5.73;65.04;99442.50;4920203;28;98477;-50
2022/01/05 04:37:36;;;;;;;2.20;0.87;;;;;;;5.72;65.25;99449.91;4926388;28;98412;-49
2022/01/05 04:40:02;;;;;;;3.03;1.43;;;;;;;5.72;65.01;99451.91;4923980;28;97028;-51
2022/01/05 04:42:28;;;;;;;2.77;0.80;;;;;;;5.70;65.05;99452.38;4923391;28;97235;-48
2022/01/05 04:44:54;;;;;;;1.73;0.60;;;;;;;5.67;65.29;99463.53;4922582;28;97181;-49
2022/01/05 04:47:19;;;;;;;2.83;0.90;;;;;;;5.66;65.24;99462.03;4921756;28;97582;-48
2022/01/05 04:49:45;;;;;;;1.30;0.53;;;;;;;5.66;65.42;99451.88;4921728;28;96851;-51
2022/01/05 04:52:10;;;;;;;5.03;1.30;;;;;;;5.63;65.15;99454.84;4922125;28;101702;-48
2022/01/05 04:54:35;;;;;;;1.30;0.80;;;;;;;5.62;65.27;99456.81;4923886;28;105764;-49
2022/01/05 04:57:01;;;;;;;5.80;0.57;;;;;;;5.61;65.17;99460.03;4924346;28;96698;-48
2022/01/05 04:59:26;;;;;;;9.20;1.27;;;;;;;5.61;65.17;99451.84;4924162;28;97273;-48
2022/01/05 05:01:52;;;;;;;2.30;0.60;;;;;;;5.60;65.06;99447.63;4927507;28;96935;-52
2022/01/05 05:04:17;;;;;;;2.70;1.00;;;;;;;5.61;64.86;99451.84;4916555;28;107360;-48
2022/01/05 05:06:42;;;;;;;6.53;1.03;;;;;;;5.59;64.92;99459.78;4923918;28;102996;-48
2022/01/05 05:09:07;;;;;;;3.63;0.77;;;;;;;5.58;64.73;99444.63;4925291;28;96792;-50
2022/01/05 05:11:33;;;;;;;2.47;1.03;;;;;;;5.55;65.01;99457.25;4921706;28;97006;-50
2022/01/05 05:13:59;;;;;;;3.90;1.10;;;;;;;5.56;64.97;99447.09;4924290;28;96819;-52
2022/01/05 05:16:24;;;;;;;5.77;1.13;;;;;;;5.55;64.95;99448.34;4921137;28;97014;-49
2022/01/05 05:18:49;;;;;;;7.07;1.13;;;;;;;5.53;64.90;99451.53;4923969;28;96961;-48
2022/01/05 05:21:15;;;;;;;4.70;0.80;;;;;;;5.52;64.99;99450.06;4920362;28;97391;-50
2022/01/05 05:23:40;;;;;;;3.27;1.20;;;;;;;5.54;65.06;99444.88;4922152;28;110261;-48
2022/01/05 05:26:05;;;;;;;3.97;0.90;;;;;;;5.53;65.01;99442.63;4922178;28;101578;-51
2022/01/05 05:28:31;;;;;;;4.83;1.23;;;;;;;5.53;64.89;99437.91;4936573;28;101455;-48
2022/01/05 05:30:56;;;;;;;8.50;1.00;;;;;;;5.53;64.61;99442.63;4926117;28;96895;-48
2022/01/05 05:33:22;;;;;;;1.77;0.90;;;;;;;5.51;64.79;99434.16;4920339;28;126102;-48
2022/01/05 05:35:47;;;;;;;6.47;1.10;;;;;;;5.50;64.90;99429.97;4924450;28;103613;-48
2022/01/05 05:38:14;;;;;;;3.20;0.83;;;;;;;5.48;64.82;99441.38;4926951;28;96877;-51
2022/01/05 05:40:39;;;;;;;4.93;0.83;;;;;;;5.50;64.76;99433.44;4924858;28;97049;-50
2022/01/05 05:43:05;;;;;;;3.80;0.77;;;;;;;5.51;64.90;99440.38;4922892;28;97458;-48
2022/01/05 05:45:30;;;;;;;2.57;0.97;;;;;;;5.50;64.70;99432.69;4925162;28;97280;-48
2022/01/05 05:47:55;;;;;;;3.27;1.23;;;;;;;5.50;64.65;99436.16;4921972;28;97172;-49
2022/01/05 05:50:21;;;;;;;3.63;1.20;;;;;;;5.49;64.88;99436.63;4926316;28;97014;-49
2022/01/05 05:52:46;;;;;;;3.90;1.07;;;;;;;5.48;64.54;99438.63;4922180;28;97237;-49
2022/01/05 05:55:12;;;;;;;3.33;1.03;;;;;;;5.47;64.87;99439.09;4922805;28;97469;-49
2022/01/05 05:57:37;;;;;;;8.47;2.10;;;;;;;5.47;64.73;99433.66;4923322;28;97066;-50
2022/01/05 06:00:05;;;;;;;2.97;0.90;;;;;;;5.46;64.83;99437.63;4922132;28;107810;-52
2022/01/05 06:02:30;;;;;;;7.17;1.00;;;;;;;5.45;64.81;99434.16;4919819;28;97198;-49
2022/01/05 06:04:55;;;;;;;4.40;0.90;;;;;;;5.44;64.78;99435.38;4919066;28;128086;-50
2022/01/05 06:07:20;;;;;;;4.03;0.87;;;;;;;5.41;64.43;99436.34;4919731;28;116345;-49
2022/01/05 06:09:46;;;;;;;10.13;1.47;;;;;;;5.41;64.72;99447.28;4924329;28;112070;-50
2022/01/05 06:12:11;;;;;;;3.60;0.90;;;;;;;5.44;64.49;99448.28;4920192;28;121606;-49
2022/01/05 06:14:36;;;;;;;7.10;0.87;;;;;;;5.49;64.36;99448.31;4921789;28;124501;-49
2022/01/05 06:17:02;;;;;;;4.33;0.70;;;;;;;5.52;64.33;99452.78;4922073;28;96977;-49
2022/01/05 06:19:27;;;;;;;4.57;0.83;;;;;;;5.54;64.68;99457.75;4924623;28;97413;-48
2022/01/05 06:21:52;;;;;;;4.80;1.03;;;;;;;5.55;64.67;99443.63;4920037;28;126854;-49
2022/01/05 06:24:18;;;;;;;3.60;0.70;;;;;;;5.58;64.58;99456.28;4918770;28;97700;-49
2022/01/05 06:26:45;;;;;;;4.00;0.80;;;;;;;5.57;64.39;99454.06;4925386;28;98396;-49
2022/01/05 06:29:12;;;;;;;4.20;1.10;;;;;;;5.56;64.50;99458.00;4920898;28;98095;-49
2022/01/05 06:31:38;;;;;;;4.57;1.73;;;;;;;5.55;64.33;99449.06;4925187;28;97870;-49
2022/01/05 06:34:03;;;;;;;5.00;1.00;;;;;;;5.55;64.39;99451.09;4923623;28;97008;-49
2022/01/05 06:36:29;;;;;;;4.10;0.70;;;;;;;5.52;64.39;99455.53;4920621;28;97585;-49
2022/01/05 06:38:54;;;;;;;7.57;1.40;;;;;;;5.51;64.23;99459.47;4920956;28;107886;-49
2022/01/05 06:41:19;;;;;;;2.60;0.87;;;;;;;5.51;64.49;99456.75;4919360;28;126093;-51
2022/01/05 06:43:44;;;;;;;5.13;1.20;;;;;;;5.52;64.37;99458.25;4920314;28;98804;-49
2022/01/05 06:46:10;;;;;;;7.80;1.40;;;;;;;5.52;64.35;99466.44;4921633;28;115806;-49
2022/01/05 06:48:35;;;;;;;4.50;1.10;;;;;;;5.51;64.25;99464.16;4917506;28;99510;-49
2022/01/05 06:51:00;;;;;;;4.83;1.50;;;;;;;5.51;64.36;99462.19;4922524;28;123499;-50
2022/01/05 06:53:27;;;;;;;10.60;1.40;;;;;;;5.54;64.63;99477.59;4920390;28;97592;-49
2022/01/05 06:55:53;;;;;;;2.40;1.10;;;;;;;5.53;64.60;99462.47;4919384;28;96870;-49
2022/01/05 06:58:18;;;;;;;5.27;1.50;;;;;;;5.54;64.04;99465.94;4922565;28;96843;-48
2022/01/05 07:00:43;;;;;;;4.50;1.03;;;;;;;5.54;64.29;99463.97;4918906;28;126767;-49
2022/01/05 07:03:10;;;;;;;2.93;0.80;;;;;;;5.50;64.14;99455.25;4923342;28;122806;-49
2022/01/05 07:05:35;;;;;;;7.63;1.00;;;;;;;5.51;64.32;99464.16;4920397;28;98004;-49
2022/01/05 07:08:01;;;;;;;8.27;1.40;;;;;;;5.51;64.30;99478.56;4920732;28;97296;-49
2022/01/05 07:10:26;;;;;;;3.70;1.30;;;;;;;5.50;63.95;99465.41;4922775;28;97518;-49
2022/01/05 07:12:52;;;;;;;9.20;1.43;;;;;;;5.49;64.22;99472.09;4923077;28;97567;-49
2022/01/05 07:15:17;;;;;;;3.23;1.13;;;;;;;5.45;64.17;99474.31;4921011;28;101632;-50
2022/01/05 07:17:43;;;;;;;5.80;1.00;;;;;;;5.46;64.58;99478.53;4919734;28;96829;-49
2022/01/05 07:20:09;;;;;;;9.50;1.67;;;;;;;5.44;64.24;99470.09;4921563;28;97438;-49
2022/01/05 07:22:36;;;;;;;6.63;1.40;;;;;;;5.41;64.24;99482.72;4921010;28;97257;-48
2022/01/05 07:25:02;;;;;;;3.63;0.90;;;;;;;5.39;64.55;99482.47;4919942;28;98357;-49
2022/01/05 07:27:27;;;;;;;10.23;1.40;;;;;;;5.38;64.09;99478.22;4924456;28;96911;-49
2022/01/05 07:29:53;;;;;;;5.43;1.17;;;;;;;5.37;64.34;99484.16;4922420;28;101842;-49
2022/01/05 07:32:18;;;;;;;4.33;1.33;;;;;;;5.40;64.38;99486.66;4921360;28;97231;-49
2022/01/05 07:34:44;;;;;;;6.43;1.63;;;;;;;5.41;64.02;99492.88;4921664;28;103016;-49
2022/01/05 07:37:12;;;;;;;2.27;1.00;;;;;;;5.40;64.06;99491.38;4920726;28;97177;-50
2022/01/05 07:39:38;;;;;;;3.37;1.10;;;;;;;5.40;64.26;99492.13;4921929;28;97553;-49
2022/01/05 07:42:04;;;;;;;4.20;1.13;;;;;;;5.42;64.19;99489.66;4920468;28;97318;-49
2022/01/05 07:44:29;;;;;;;4.17;1.10;;;;;;;5.47;64.04;99504.56;4923118;28;97161;-49
2022/01/05 07:46:54;;;;;;;5.50;1.43;;;;;;;5.54;64.08;99509.56;4924261;28;98217;-49
2022/01/05 07:49:20;;;;;;;2.73;1.10;;;;;;;5.59;64.31;99508.88;4918184;28;117276;-50
2022/01/05 07:51:45;;;;;;;2.50;1.33;;;;;;;5.63;64.08;99493.03;4921116;28;97170;-49
2022/01/05 07:54:10;;;;;;;2.17;1.20;;;;;;;5.66;64.08;99511.13;4920380;28;103314;-49
2022/01/05 07:56:37;;;;;;;3.57;1.03;;;;;;;5.65;64.09;99494.03;4918107;28;97053;-49
2022/01/05 07:59:03;;;;;;;4.50;1.53;;;;;;;5.62;63.75;99497.72;4924069;28;96836;-49
2022/01/05 08:01:28;;;;;;;2.40;1.20;;;;;;;5.61;64.19;99487.31;4919206;28;96895;-49
2022/01/05 08:03:54;;;;;;;8.87;1.20;;;;;;;5.60;63.81;99485.81;4922365;28;97647;-49
2022/01/05 08:06:20;;;;;;;4.87;1.17;;;;;;;5.58;64.01;99483.56;4918646;28;96821;-49
2022/01/05 08:08:46;;;;;;;5.40;2.13;;;;;;;5.57;64.05;99476.63;4915784;28;98501;-49
2022/01/05 08:11:12;;;;;;;4.20;1.37;;;;;;;5.57;64.41;99482.06;4920498;28;98350;-49
2022/01/05 08:13:37;;;;;;;6.40;1.30;;;;;;;5.56;64.07;99486.03;4918590;28;97613;-49
2022/01/05 08:16:03;;;;;;;8.90;1.47;;;;;;;5.56;64.00;99488.78;4922348;28;102219;-49
2022/01/05 08:18:29;;;;;;;7.27;1.70;;;;;;;5.59;63.85;99487.78;4919316;28;97343;-49
2022/01/05 08:20:55;;;;;;;5.73;3.00;;;;;;;5.60;64.21;99500.19;4918320;28;97150;-49
2022/01/05 08:23:22;;;;;;;3.53;1.40;;;;;;;5.63;64.25;99487.56;4921158;28;96916;-49
2022/01/05 08:25:49;;;;;;;4.47;1.40;;;;;;;5.63;63.87;99485.59;4920322;28;97794;-49
2022/01/05 08:28:16;;;;;;;9.70;1.70;;;;;;;5.70;64.25;99481.69;4923390;28;102573;-49
2022/01/05 08:30:44;;;;;;;6.67;1.60;;;;;;;5.77;64.37;99479.22;4925238;28;97204;-49
2022/01/05 08:33:10;;;;;;;4.70;1.27;;;;;;;5.83;63.98;99493.63;4920554;28;98097;-49
2022/01/05 08:35:35;;;;;;;5.10;1.73;;;;;;;5.84;63.85;99484.25;4926171;28;96938;-50
2022/01/05 08:38:02;;;;;;;3.40;1.80;;;;;;;5.88;64.16;99484.78;4923538;28;97663;-51
2022/01/05 08:40:27;;;;;;;4.10;1.27;;;;;;;5.93;64.12;99494.22;4925066;28;97490;-50
2022/01/05 08:42:54;;;;;;;5.67;1.97;;;;;;;5.95;63.86;99489.78;4923646;28;97497;-49
2022/01/05 08:45:21;;;;;;;5.10;1.47;;;;;;;6.02;64.08;99486.59;4924521;28;97524;-49
2022/01/05 08:47:48;;;;;;;3.30;1.60;;;;;;;6.08;63.85;99483.88;4924004;28;97468;-49
2022/01/05 08:50:19;;;;;;;8.60;1.77;;;;;;;6.11;63.60;99473.97;4919437;28;98028;-49
2022/01/05 08:52:45;;;;;;;10.63;1.47;;;;;;;6.16;63.60;99476.00;4921820;28;96901;-49
2022/01/05 08:55:11;;;;;;;12.40;2.53;;;;;;;6.18;63.48;99479.69;4923736;28;97270;-49
2022/01/05 08:57:37;;;;;;;6.90;1.90;;;;;;;6.19;63.68;99480.44;4921412;28;97246;-49
2022/01/05 09:00:05;;;;;;;6.50;1.60;;;;;;;6.23;63.87;99480.97;4921497;28;97466;-49
2022/01/05 09:02:30;;;;;;;5.00;1.80;;;;;;;6.27;63.41;99476.03;4923311;28;97212;-49
2022/01/05 09:04:55;;;;;;;4.93;1.70;;;;;;;6.25;63.42;99464.81;4922795;28;97034;-50
2022/01/05 09:07:21;;;;;;;4.47;1.80;;;;;;;6.27;63.75;99506.06;4923823;28;125618;-49
2022/01/05 09:09:46;;;;;;;4.40;1.77;;;;;;;6.28;63.82;99466.59;4920451;28;98454;-49
2022/01/05 09:12:12;;;;;;;8.50;1.40;;;;;;;6.29;63.47;99470.81;4924533;28;96984;-49
2022/01/05 09:14:38;;;;;;;6.80;1.50;;;;;;;6.31;63.92;99476.53;4924714;28;97097;-50
2022/01/05 09:17:04;;;;;;;2.53;1.63;;;;;;;6.31;63.26;99476.53;4922191;28;97717;-50
2022/01/05 09:19:29;;;;;;;4.37;1.70;;;;;;;6.32;63.86;99480.75;4916869;28;97335;-50
2022/01/05 09:21:55;;;;;;;10.63;2.00;;;;;;;6.34;63.70;99476.28;4922599;28;97020;-50
2022/01/05 09:24:21;;;;;;;10.07;1.93;;;;;;;6.41;63.75;99494.19;4923718;28;97055;-49
2022/01/05 09:26:47;;;;;;;3.40;1.47;;;;;;;6.40;63.32;99474.31;4922631;28;97140;-49
2022/01/05 09:29:12;;;;;;;8.83;2.10;;;;;;;6.42;63.56;99471.13;4920214;28;97297;-49
2022/01/05 09:31:37;;;;;;;2.93;1.27;;;;;;;6.41;63.43;99480.53;4924744;28;97132;-49
2022/01/05 09:34:03;;;;;;;3.27;1.70;;;;;;;6.42;63.59;99468.38;4918812;28;97995;-49
2022/01/05 09:36:41;;;;;;;7.10;2.00;;;;;;;6.42;63.77;99480.03;4924148;28;98781;-49
2022/01/05 09:41:57;;;;;;;5.37;1.83;;;;;;;6.45;63.30;99490.00;4921179;28;96809;-49
2022/01/05 09:44:29;;;;;;;6.37;1.97;;;;;;;6.50;63.41;99488.50;4923986;28;97411;-49
2022/01/05 09:47:13;;;;;;;4.87;1.80;;;;;;;6.52;63.70;99481.31;4922221;28;101978;-49
2022/01/05 09:49:45;;;;;;;7.20;1.67;;;;;;;6.54;63.58;99508.16;4916674;28;101707;-49
2022/01/05 09:52:11;;;;;;;4.20;2.00;;;;;;;6.52;63.68;99481.31;4923429;28;97217;-50
2022/01/05 09:54:42;;;;;;;6.10;1.70;;;;;;;6.57;64.00;99488.03;4920945;28;97467;-50
2022/01/05 09:57:09;;;;;;;4.57;2.07;;;;;;;6.64;63.75;99480.09;4924247;28;97473;-49
2022/01/05 09:59:35;;;;;;;5.60;1.77;;;;;;;6.65;63.56;99457.00;4919761;28;101777;-50
2022/01/05 10:02:04;;;;;;;6.53;2.47;;;;;;;6.67;63.45;99470.94;4919324;28;97404;-49
2022/01/05 10:04:30;;;;;;;2.80;1.60;;;;;;;6.69;63.52;99476.66;4924525;28;97355;-49
2022/01/05 10:06:56;;;;;;;4.57;1.93;;;;;;;6.71;63.10;99470.69;4922977;28;97396;-49
2022/01/05 10:09:21;;;;;;;4.27;2.03;;;;;;;6.70;63.41;99471.94;4922189;28;97243;-49
2022/01/05 10:11:47;;;;;;;4.80;1.73;;;;;;;6.72;63.85;99467.47;4924297;28;96926;-49
2022/01/05 10:14:13;;;;;;;5.70;1.57;;;;;;;6.74;63.53;99462.25;4922236;28;104801;-48
2022/01/05 10:16:58;;;;;;;6.10;1.70;;;;;;;6.78;63.26;99464.72;4925021;28;98609;-49
2022/01/05 10:19:24;;;;;;;4.33;1.60;;;;;;;6.81;63.65;99472.69;4921065;28;102861;-49
2022/01/05 10:21:51;;;;;;;5.80;2.00;;;;;;;6.83;63.34;99464.00;4921750;28;96817;-49
2022/01/05 10:24:16;;;;;;;6.30;2.67;;;;;;;6.78;63.26;99459.25;4923785;28;97298;-49
2022/01/05 10:26:41;;;;;;;6.60;1.63;;;;;;;6.86;63.51;99475.94;4920400;28;97374;-49
2022/01/05 10:29:14;;;;;;;5.17;1.80;;;;;;;6.89;63.00;99475.69;4918642;28;97448;-50
2022/01/05 10:31:41;;;;;;;2.17;1.50;;;;;;;6.89;63.42;99474.94;4920312;28;97274;-49
2022/01/05 10:34:28;;;;;;;4.10;1.47;;;;;;;6.86;63.39;99471.19;4920056;28;97783;-49
2022/01/05 10:36:56;;;;;;;6.03;1.80;;;;;;;6.82;63.73;99478.91;4920898;28;101633;-50
2022/01/05 10:39:29;;;;;;;2.57;1.20;;;;;;;6.77;63.76;99476.91;4923808;28;99217;-50
2022/01/05 10:41:54;;;;;;;5.33;2.50;;;;;;;6.77;63.88;99485.13;4919352;28;98524;-49
2022/01/05 10:44:22;;;;;;;1.67;1.27;;;;;;;6.77;63.94;99485.84;4923005;28;96741;-50
2022/01/05 10:46:54;;;;;;;1.33;1.13;;;;;;;6.79;63.74;99482.63;4918068;28;97504;-49
2022/01/05 10:49:23;;;;;;;2.10;1.50;;;;;;;6.80;63.73;99487.59;4924717;28;100387;-50
2022/01/05 10:51:48;;;;;;;1.93;1.40;;;;;;;6.80;64.08;99484.13;4921044;28;96899;-49
2022/01/05 10:54:15;;;;;;;1.77;1.20;;;;;;;6.77;64.38;99483.13;4919506;28;105997;-49
2022/01/05 10:56:41;;;;;;;6.90;1.23;;;;;;;6.79;63.90;99485.38;4925493;28;96833;-49
2022/01/05 10:59:06;;;;;;;1.63;1.50;;;;;;;6.82;64.08;99487.09;4920861;28;97018;-49
2022/01/05 11:01:33;;;;;;;1.70;1.30;;;;;;;6.82;64.12;99487.09;4922762;28;96872;-50
2022/01/05 11:03:59;;;;;;;1.40;1.23;;;;;;;6.82;64.54;99487.09;4922476;28;96900;-49
2022/01/05 11:06:24;;;;;;;1.63;1.53;;;;;;;6.75;64.13;99477.41;4919781;28;97252;-49
2022/01/05 11:08:54;;;;;;;1.70;1.60;;;;;;;6.71;64.33;99476.13;4924781;28;117139;-49
2022/01/05 11:11:42;;;;;;;1.83;1.60;;;;;;;6.61;64.54;99483.84;4921005;28;97145;-49
2022/01/05 11:14:19;;;;;;;1.73;1.50;;;;;;;6.56;64.57;99486.53;4918819;28;97830;-49
2022/01/05 11:16:54;;;;;;;1.43;1.33;;;;;;;6.52;64.53;99486.03;4924241;28;100384;-49
2022/01/05 11:19:28;;;;;;;2.43;1.73;;;;;;;6.47;64.81;99484.78;4920172;28;100281;-55
2022/01/05 11:22:06;;;;;;;1.70;1.60;;;;;;;6.40;64.46;99487.97;4918512;28;97925;-49
2022/01/05 11:24:35;;;;;;;1.80;1.70;;;;;;;6.32;64.85;99495.16;4922450;28;97170;-49
2022/01/05 11:27:02;;;;;;;3.40;1.83;;;;;;;6.28;64.85;99511.03;4919139;28;96886;-49
2022/01/05 11:29:27;;;;;;;3.67;2.20;;;;;;;6.25;64.94;99500.31;4921217;28;97221;-49
2022/01/05 11:31:56;;;;;;;1.80;1.70;;;;;;;6.20;65.03;99507.28;4918933;28;97102;-49
2022/01/05 11:34:22;;;;;;;1.67;1.47;;;;;;;6.14;65.06;99511.22;4919657;28;96916;-49
2022/01/05 11:36:47;;;;;;;3.70;2.20;;;;;;;6.08;64.98;99513.91;4922173;28;97486;-49